Time;durP1;ratioP1;P1;durP2;ratioP2;P2;SDS_P1;SDS_P2;PMS_P1;PMS_P2;Temp;Humidity;BMP_temperature;BMP_pressure;BME280_temperature;BME280_humidity;BME280_pressure;Samples;Min_cycle;Max_cycle;Signal;HPM_P1;HPM_P2
2022/01/09 00:02:02;;;;;;;49.20;24.80;;;;;;;1.19;66.83;99276.85;130221;1270;108553;-76
2022/01/09 00:05:10;;;;;;;45.90;24.30;;;;;;;1.16;66.62;99274.96;130122;1270;109028;-71
2022/01/09 00:08:16;;;;;;;45.50;24.00;;;;;;;1.13;66.73;99275.22;130101;1269;108830;-74
2022/01/09 00:11:26;;;;;;;46.20;23.50;;;;;;;1.10;66.78;99271.73;130171;1270;108883;-76
2022/01/09 00:14:31;;;;;;;46.30;24.00;;;;;;;1.05;66.91;99272.82;130196;1270;108498;-77
2022/01/09 00:17:37;;;;;;;44.70;23.10;;;;;;;1.04;66.78;99274.13;130302;1270;108861;-75
2022/01/09 00:20:42;;;;;;;47.30;23.80;;;;;;;1.03;66.70;99274.88;130202;1269;108496;-76
2022/01/09 00:23:48;;;;;;;45.40;23.20;;;;;;;1.02;66.82;99271.69;130206;1270;108859;-77
2022/01/09 00:26:54;;;;;;;51.10;24.50;;;;;;;1.01;66.79;99270.19;130225;1270;109198;-77
2022/01/09 00:30:00;;;;;;;45.70;23.50;;;;;;;0.99;66.77;99273.59;130241;1270;108725;-75
2022/01/09 00:33:06;;;;;;;50.80;25.00;;;;;;;0.98;66.90;99270.02;130189;1269;106698;-76
2022/01/09 00:36:11;;;;;;;48.80;24.20;;;;;;;0.96;66.78;99266.48;130143;1269;108682;-76
2022/01/09 00:39:17;;;;;;;45.40;23.70;;;;;;;0.94;66.76;99266.45;130184;1270;108913;-77
2022/01/09 00:42:23;;;;;;;50.70;24.90;;;;;;;0.93;66.83;99263.20;130218;1270;107679;-76
2022/01/09 00:45:29;;;;;;;50.00;25.50;;;;;;;0.93;66.80;99265.27;130153;1270;108921;-77
2022/01/09 00:48:35;;;;;;;54.80;26.10;;;;;;;0.92;66.89;99260.48;130230;1270;108755;-76
2022/01/09 00:51:41;;;;;;;59.20;27.60;;;;;;;0.90;66.94;99255.03;130201;1270;108506;-76
2022/01/09 00:54:47;;;;;;;57.70;27.80;;;;;;;0.87;66.84;99245.98;130140;1270;108656;-78
2022/01/09 00:57:52;;;;;;;60.20;27.00;;;;;;;0.86;66.92;99241.90;130142;1270;108743;-74
2022/01/09 01:00:58;;;;;;;52.20;25.00;;;;;;;0.83;66.86;99231.75;130165;1270;108759;-74
2022/01/09 01:04:03;;;;;;;48.50;24.50;;;;;;;0.84;66.85;99227.70;130162;1270;108731;-74
2022/01/09 01:07:09;;;;;;;42.00;20.80;;;;;;;0.89;66.94;99229.19;130212;1269;108636;-74
2022/01/09 01:10:15;;;;;;;45.30;22.90;;;;;;;0.97;66.88;99224.61;130197;1270;108738;-74
2022/01/09 01:13:21;;;;;;;43.40;22.30;;;;;;;1.03;66.94;99214.85;130235;1270;109110;-74
2022/01/09 01:16:26;;;;;;;42.80;22.90;;;;;;;1.07;66.90;99206.09;130248;1270;108869;-72
2022/01/09 01:19:33;;;;;;;43.70;22.50;;;;;;;1.10;66.80;99206.39;130263;1270;106788;-74
2022/01/09 01:22:38;;;;;;;46.30;24.50;;;;;;;1.10;66.80;99202.04;130261;1270;108745;-74
2022/01/09 01:25:50;;;;;;;47.40;24.20;;;;;;;1.09;66.79;99201.23;130251;1270;108904;-74
2022/01/09 01:28:56;;;;;;;46.20;23.60;;;;;;;1.05;66.77;99202.77;130200;1269;108692;-76
2022/01/09 01:32:01;;;;;;;45.90;24.70;;;;;;;1.04;66.88;99203.24;130163;1270;108793;-73
2022/01/09 01:35:08;;;;;;;47.50;23.60;;;;;;;1.01;66.67;99196.05;130135;1270;108784;-74
2022/01/09 01:38:13;;;;;;;46.80;24.00;;;;;;;0.96;66.75;99184.73;130146;1270;108890;-73
2022/01/09 01:41:19;;;;;;;45.50;23.30;;;;;;;0.87;66.69;99179.67;130164;1270;108841;-74
2022/01/09 01:44:24;;;;;;;46.60;24.20;;;;;;;0.74;66.70;99177.48;130132;1270;108736;-74
2022/01/09 01:47:29;;;;;;;43.40;23.40;;;;;;;0.60;66.73;99178.39;130205;1270;109028;-74
2022/01/09 01:50:37;;;;;;;49.80;24.90;;;;;;;0.46;66.68;99175.60;130160;1270;108977;-75
2022/01/09 01:53:45;;;;;;;48.70;24.70;;;;;;;0.32;66.70;99173.11;130161;1270;108860;-73
2022/01/09 01:56:51;;;;;;;50.10;25.10;;;;;;;0.20;66.77;99164.70;130209;1270;107425;-75
2022/01/09 01:59:57;;;;;;;51.30;25.10;;;;;;;0.10;66.99;99158.46;130240;1269;108739;-74
2022/01/09 02:03:03;;;;;;;50.80;25.00;;;;;;;-0.04;67.09;99154.58;130259;1270;108864;-74
2022/01/09 02:06:08;;;;;;;47.90;24.50;;;;;;;-0.14;67.04;99153.27;130283;1270;107641;-73
2022/01/09 02:09:14;;;;;;;48.10;25.60;;;;;;;-0.22;66.83;99149.48;130181;1270;108666;-74
2022/01/09 02:12:20;;;;;;;52.40;26.20;;;;;;;-0.32;67.09;99146.14;130283;1269;108670;-74
2022/01/09 02:15:37;;;;;;;50.10;25.10;;;;;;;-0.42;66.93;99146.16;130170;1269;107670;-74
2022/01/09 02:18:42;;;;;;;48.60;24.10;;;;;;;-0.54;66.75;99146.02;130161;1270;106855;-72
2022/01/09 02:21:48;;;;;;;50.50;24.50;;;;;;;-0.71;66.64;99149.10;130208;1270;108748;-70
2022/01/09 02:24:53;;;;;;;50.00;24.80;;;;;;;-0.82;67.05;99148.48;130260;1270;108815;-73
2022/01/09 02:27:59;;;;;;;47.50;24.60;;;;;;;-0.92;67.06;99154.44;130168;1269;109012;-73
2022/01/09 02:31:04;;;;;;;48.70;23.50;;;;;;;-1.00;67.04;99147.65;130229;1270;108915;-71
2022/01/09 02:34:10;;;;;;;50.20;25.30;;;;;;;-1.08;67.01;99148.04;130171;1270;108940;-74
2022/01/09 02:37:15;;;;;;;47.80;24.20;;;;;;;-1.13;67.21;99150.12;130150;1270;108978;-76
2022/01/09 02:40:22;;;;;;;47.80;24.90;;;;;;;-1.18;67.04;99145.38;130210;1270;108918;-74
2022/01/09 02:43:28;;;;;;;47.30;23.60;;;;;;;-1.24;67.07;99140.73;130249;1270;106874;-75
2022/01/09 02:46:43;;;;;;;49.60;24.30;;;;;;;-1.28;67.20;99141.02;130225;1270;108863;-78
2022/01/09 02:49:51;;;;;;;47.30;22.40;;;;;;;-1.36;67.09;99134.44;130063;1269;106659;-75
2022/01/09 02:52:59;;;;;;;47.00;22.90;;;;;;;-1.37;67.23;99132.05;129994;1270;108717;-74
2022/01/09 02:56:08;;;;;;;45.30;21.90;;;;;;;-1.33;67.15;99127.08;130057;1270;108725;-75
2022/01/09 02:59:13;;;;;;;45.50;20.50;;;;;;;-1.33;66.97;99124.97;129787;1272;229485;-73
2022/01/09 03:02:23;;;;;;;51.80;23.50;;;;;;;-1.30;66.91;99124.57;130155;1270;108794;-73
2022/01/09 03:05:30;;;;;;;46.20;22.60;;;;;;;-1.27;67.07;99115.48;130017;1270;108967;-74
2022/01/09 03:08:35;;;;;;;46.20;22.20;;;;;;;-1.27;67.03;99108.84;130022;1270;108944;-74
2022/01/09 03:11:41;;;;;;;43.60;22.50;;;;;;;-1.29;67.11;99106.34;129965;1270;108784;-74
2022/01/09 03:14:46;;;;;;;44.60;22.50;;;;;;;-1.31;66.93;99105.62;130009;1270;108863;-73
2022/01/09 03:17:52;;;;;;;49.60;24.30;;;;;;;-1.34;66.87;99105.50;130164;1269;108978;-73
2022/01/09 03:20:58;;;;;;;44.90;22.60;;;;;;;-1.41;67.08;99100.24;130126;1270;108498;-72
2022/01/09 03:24:03;;;;;;;47.80;24.30;;;;;;;-1.50;66.94;99099.79;130131;1270;108832;-73
2022/01/09 03:27:09;;;;;;;45.80;23.00;;;;;;;-1.54;67.08;99103.25;130205;1270;108947;-73
2022/01/09 03:30:15;;;;;;;45.50;22.80;;;;;;;-1.60;67.07;99100.48;130236;1269;107862;-73
2022/01/09 03:33:20;;;;;;;47.10;23.20;;;;;;;-1.68;66.90;99103.27;130238;1270;108946;-73
2022/01/09 03:36:26;;;;;;;52.00;23.70;;;;;;;-1.75;66.91;99098.38;130184;1270;108633;-73
2022/01/09 03:39:31;;;;;;;53.10;25.00;;;;;;;-1.83;66.89;99106.36;130170;1269;108875;-74
2022/01/09 03:42:37;;;;;;;48.00;23.10;;;;;;;-1.90;67.05;99102.52;130202;1270;109558;-73
2022/01/09 03:45:42;;;;;;;52.20;23.50;;;;;;;-1.95;66.97;99098.44;130139;1270;108580;-74
2022/01/09 03:48:48;;;;;;;52.20;23.80;;;;;;;-2.00;67.14;99096.66;130173;1269;108750;-74
2022/01/09 03:51:55;;;;;;;54.20;26.00;;;;;;;-2.05;66.99;99092.30;130234;1270;109159;-74
2022/01/09 03:55:01;;;;;;;50.90;23.70;;;;;;;-2.08;67.16;99092.23;130133;1270;107558;-74
2022/01/09 03:58:08;;;;;;;49.10;23.40;;;;;;;-2.12;67.23;99087.61;130230;1270;108630;-73
2022/01/09 04:01:14;;;;;;;50.00;24.30;;;;;;;-2.15;67.22;99090.24;130159;1270;108683;-73
2022/01/09 04:04:19;;;;;;;46.50;23.30;;;;;;;-2.22;67.01;99088.08;130124;1271;108784;-79
2022/01/09 04:07:24;;;;;;;49.50;23.20;;;;;;;-2.26;67.16;99088.45;130150;1270;109069;-79
2022/01/09 04:10:32;;;;;;;54.00;24.70;;;;;;;-2.29;67.09;99089.57;130292;1269;106568;-76
2022/01/09 04:13:38;;;;;;;48.80;23.70;;;;;;;-2.34;67.26;99088.83;130262;1270;108754;-78
2022/01/09 04:16:44;;;;;;;48.20;23.40;;;;;;;-2.40;67.23;99090.92;130255;1269;108747;-74
2022/01/09 04:19:49;;;;;;;47.10;23.10;;;;;;;-2.45;66.86;99087.42;130273;1270;107684;-74
2022/01/09 04:22:56;;;;;;;52.30;23.30;;;;;;;-2.50;66.94;99085.00;130234;1270;108665;-74
2022/01/09 04:26:01;;;;;;;54.70;24.20;;;;;;;-2.56;66.99;99087.11;130256;1270;108590;-73
2022/01/09 04:29:07;;;;;;;48.10;23.00;;;;;;;-2.60;67.22;99087.55;130273;1270;108732;-75
2022/01/09 04:32:12;;;;;;;53.10;23.50;;;;;;;-2.62;67.41;99084.54;130127;1269;108758;-75
2022/01/09 04:35:18;;;;;;;51.60;23.50;;;;;;;-2.62;67.43;99078.12;130171;1269;109522;-76
2022/01/09 04:38:23;;;;;;;47.00;23.10;;;;;;;-2.60;67.57;99078.45;130140;1270;108739;-74
2022/01/09 04:41:29;;;;;;;49.20;21.00;;;;;;;-2.53;67.91;99075.23;130187;1271;108687;-74
2022/01/09 04:44:34;;;;;;;49.20;22.70;;;;;;;-2.46;67.81;99071.29;130157;1270;108787;-73
2022/01/09 04:47:42;;;;;;;49.60;23.70;;;;;;;-2.41;67.70;99073.78;130239;1269;108856;-73
2022/01/09 04:50:51;;;;;;;47.50;23.00;;;;;;;-2.39;67.36;99070.35;130286;1270;109736;-73
2022/01/09 04:53:57;;;;;;;53.60;23.90;;;;;;;-2.41;67.71;99066.79;130242;1270;108686;-73
2022/01/09 04:57:02;;;;;;;53.40;24.30;;;;;;;-2.41;67.64;99062.45;130283;1271;108611;-73
2022/01/09 05:00:10;;;;;;;51.10;23.80;;;;;;;-2.43;68.01;99061.67;130310;1270;108742;-72
2022/01/09 05:03:18;;;;;;;53.70;23.80;;;;;;;-2.44;67.89;99062.10;130290;1270;108924;-72
2022/01/09 05:06:24;;;;;;;50.00;23.60;;;;;;;-2.44;67.95;99060.05;130220;1270;108806;-72
2022/01/09 05:09:29;;;;;;;49.10;23.00;;;;;;;-2.45;68.02;99053.16;130130;1269;108786;-71
2022/01/09 05:12:35;;;;;;;53.70;24.50;;;;;;;-2.46;68.28;99046.44;130128;1270;108776;-70
2022/01/09 05:15:41;;;;;;;55.40;25.60;;;;;;;-2.49;68.14;99037.71;130177;1270;110004;-73
2022/01/09 05:18:52;;;;;;;53.50;24.20;;;;;;;-2.51;68.27;99036.98;130207;1270;108668;-74
2022/01/09 05:21:59;;;;;;;50.40;24.30;;;;;;;-2.52;68.45;99033.06;130255;1269;108646;-74
2022/01/09 05:25:07;;;;;;;54.50;24.10;;;;;;;-2.52;68.53;99028.17;130005;1270;107835;-73
2022/01/09 05:28:12;;;;;;;52.80;24.10;;;;;;;-2.54;68.45;99021.16;130236;1270;108154;-72
2022/01/09 05:31:18;;;;;;;60.20;25.60;;;;;;;-2.53;68.43;99019.23;130192;1270;108701;-74
2022/01/09 05:34:23;;;;;;;48.70;23.40;;;;;;;-2.53;68.72;99015.19;130097;1270;108822;-73
2022/01/09 05:37:28;;;;;;;55.50;24.80;;;;;;;-2.50;68.62;99017.10;130164;1269;108804;-73
2022/01/09 05:40:34;;;;;;;43.60;20.40;;;;;;;-2.44;68.72;99017.36;130142;1270;108727;-72
2022/01/09 05:43:40;;;;;;;54.50;24.50;;;;;;;-2.33;68.77;99018.91;130215;1270;108427;-74
2022/01/09 05:46:46;;;;;;;57.30;25.60;;;;;;;-2.26;68.60;99019.19;130144;1270;108905;-77
2022/01/09 05:49:52;;;;;;;51.30;25.30;;;;;;;-2.23;68.77;99015.85;130136;1270;108664;-74
2022/01/09 05:52:57;;;;;;;56.80;25.10;;;;;;;-2.26;68.42;99016.36;130190;1270;108764;-74
2022/01/09 05:56:03;;;;;;;56.60;25.40;;;;;;;-2.29;68.61;99017.09;130293;1270;108758;-74
2022/01/09 05:59:09;;;;;;;55.10;26.00;;;;;;;-2.31;68.83;99012.20;130276;1270;108990;-75
2022/01/09 06:02:14;;;;;;;53.10;25.80;;;;;;;-2.33;68.57;99021.17;130280;1270;108763;-75
2022/01/09 06:05:20;;;;;;;56.00;26.20;;;;;;;-2.37;68.85;99025.78;130261;1270;109037;-75
2022/01/09 06:08:25;;;;;;;59.70;26.30;;;;;;;-2.40;68.87;99026.48;130276;1270;106762;-74
2022/01/09 06:11:31;;;;;;;57.00;25.80;;;;;;;-2.43;68.84;99026.02;130159;1270;108794;-74
2022/01/09 06:14:36;;;;;;;56.60;26.50;;;;;;;-2.44;68.90;99025.58;130196;1270;108798;-74
2022/01/09 06:17:43;;;;;;;55.50;26.40;;;;;;;-2.48;68.86;99020.61;130266;1271;109019;-73
2022/01/09 06:20:49;;;;;;;55.90;26.30;;;;;;;-2.54;68.87;99018.03;130154;1270;108851;-74
2022/01/09 06:23:54;;;;;;;59.70;28.30;;;;;;;-2.57;69.08;99021.39;130226;1270;107715;-74
2022/01/09 06:27:00;;;;;;;57.40;25.30;;;;;;;-2.63;69.11;99024.54;130109;1270;108917;-74
2022/01/09 06:30:07;;;;;;;59.40;26.20;;;;;;;-2.66;69.22;99023.70;130138;1270;108658;-74
2022/01/09 06:33:13;;;;;;;54.30;24.90;;;;;;;-2.66;69.29;99029.61;130199;1270;107024;-73
2022/01/09 06:36:19;;;;;;;54.50;24.40;;;;;;;-2.60;69.23;99036.17;130204;1270;108862;-76
2022/01/09 06:39:24;;;;;;;55.40;22.90;;;;;;;-2.53;69.12;99038.38;130196;1270;108748;-75
2022/01/09 06:42:29;;;;;;;56.70;24.70;;;;;;;-2.48;69.04;99043.98;130155;1270;109684;-74
2022/01/09 06:45:35;;;;;;;54.00;24.80;;;;;;;-2.43;69.28;99046.55;130174;1270;108786;-75
2022/01/09 06:48:41;;;;;;;59.40;26.10;;;;;;;-2.40;69.29;99051.57;130274;1270;108747;-74
2022/01/09 06:51:46;;;;;;;60.50;28.00;;;;;;;-2.37;69.18;99050.52;130230;1270;107464;-73
2022/01/09 06:54:52;;;;;;;58.60;26.70;;;;;;;-2.35;69.23;99051.27;130284;1271;108969;-73
2022/01/09 06:57:58;;;;;;;58.10;26.30;;;;;;;-2.34;69.14;99052.78;130248;1270;108971;-73
2022/01/09 07:01:04;;;;;;;61.40;26.80;;;;;;;-2.35;69.08;99058.91;130366;1269;108756;-73
2022/01/09 07:04:09;;;;;;;53.20;26.20;;;;;;;-2.38;69.10;99066.80;130306;1270;108613;-72
2022/01/09 07:07:15;;;;;;;62.70;28.50;;;;;;;-2.40;69.04;99071.60;130273;1271;108794;-73
2022/01/09 07:10:20;;;;;;;55.80;25.10;;;;;;;-2.40;68.89;99074.95;130170;1271;109739;-73
2022/01/09 07:13:25;;;;;;;56.20;26.20;;;;;;;-2.45;68.99;99078.04;130105;1270;108936;-73
2022/01/09 07:16:31;;;;;;;56.80;26.70;;;;;;;-2.44;68.96;99079.56;130179;1269;107828;-76
2022/01/09 07:19:38;;;;;;;54.70;25.90;;;;;;;-2.46;69.06;99081.42;130232;1270;107450;-73
2022/01/09 07:22:43;;;;;;;53.50;27.00;;;;;;;-2.44;69.15;99080.77;130171;1269;106572;-75
2022/01/09 07:25:49;;;;;;;55.60;26.50;;;;;;;-2.43;69.08;99077.88;130202;1271;107700;-74
2022/01/09 07:28:54;;;;;;;53.90;24.50;;;;;;;-2.39;69.04;99082.70;130280;1271;108885;-72
2022/01/09 07:32:00;;;;;;;55.70;25.40;;;;;;;-2.36;69.24;99084.95;130252;1271;108907;-73
2022/01/09 07:35:07;;;;;;;65.60;30.00;;;;;;;-2.31;68.98;99083.61;130281;1270;108827;-74
2022/01/09 07:38:13;;;;;;;51.80;24.00;;;;;;;-2.22;69.33;99082.48;130254;1271;108673;-73
2022/01/09 07:41:18;;;;;;;51.50;22.50;;;;;;;-2.09;69.47;99084.38;130233;1271;108729;-71
2022/01/09 07:44:23;;;;;;;52.70;24.50;;;;;;;-1.96;69.41;99086.18;130341;1271;109693;-73
2022/01/09 07:47:29;;;;;;;57.00;26.30;;;;;;;-1.85;69.34;99089.63;130064;1270;108809;-73
2022/01/09 07:50:35;;;;;;;53.50;26.00;;;;;;;-1.76;69.16;99086.58;130116;1271;108791;-76
2022/01/09 07:53:40;;;;;;;59.50;27.10;;;;;;;-1.69;69.29;99081.39;130254;1271;108799;-78
2022/01/09 07:56:46;;;;;;;54.30;27.10;;;;;;;-1.63;68.93;99079.26;130231;1271;108919;-74
2022/01/09 07:59:51;;;;;;;56.40;26.90;;;;;;;-1.57;69.10;99077.56;130283;1269;107684;-74
2022/01/09 08:02:57;;;;;;;53.80;27.60;;;;;;;-1.44;69.19;99077.42;130248;1270;108877;-73
2022/01/09 08:06:02;;;;;;;63.80;31.80;;;;;;;-1.35;69.18;99077.85;130561;1271;107333;-78
2022/01/09 08:09:08;;;;;;;68.50;32.90;;;;;;;-1.24;69.21;99073.42;130422;1270;109162;-76
2022/01/09 08:12:14;;;;;;;96.60;47.60;;;;;;;-1.16;69.14;99072.71;130462;1268;108725;-78
2022/01/09 08:15:20;;;;;;;113.50;56.40;;;;;;;-1.16;69.28;99073.04;130407;1268;108876;-78
2022/01/09 08:18:25;;;;;;;86.90;41.60;;;;;;;-1.15;68.98;99076.48;130433;1270;108974;-80
2022/01/09 08:21:31;;;;;;;72.40;35.90;;;;;;;-1.17;69.02;99074.83;130302;1271;108805;-78
2022/01/09 08:24:38;;;;;;;63.60;31.10;;;;;;;-1.19;69.10;99071.98;130325;1270;108847;-83
2022/01/09 08:27:45;;;;;;;70.30;36.80;;;;;;;-1.22;69.10;99075.85;130407;1270;108958;-84
2022/01/09 08:30:50;;;;;;;86.60;44.40;;;;;;;-1.23;69.09;99075.04;130402;1270;108530;-81
2022/01/09 08:33:56;;;;;;;76.90;39.80;;;;;;;-1.20;69.43;99074.52;130343;1269;108725;-78
2022/01/09 08:37:02;;;;;;;66.40;32.70;;;;;;;-1.19;69.20;99076.69;130267;1269;108671;-79
2022/01/09 08:40:09;;;;;;;65.50;32.20;;;;;;;-1.16;69.36;99073.21;130382;1268;109218;-75
2022/01/09 08:43:15;;;;;;;59.00;28.20;;;;;;;-1.11;69.39;99069.19;130353;1268;108930;-77
2022/01/09 08:46:23;;;;;;;54.10;27.40;;;;;;;-1.03;69.53;99066.20;130347;1268;108976;-76
2022/01/09 08:49:29;;;;;;;56.80;26.60;;;;;;;-0.91;69.48;99065.13;130404;1271;106632;-76
2022/01/09 08:52:35;;;;;;;65.00;27.70;;;;;;;-0.76;69.05;99069.10;130411;1271;108812;-78
2022/01/09 08:55:41;;;;;;;57.10;27.90;;;;;;;-0.59;69.04;99065.31;130470;1271;108836;-75
2022/01/09 08:58:46;;;;;;;54.70;27.90;;;;;;;-0.46;68.83;99066.95;130514;1271;108786;-78
2022/01/09 09:01:52;;;;;;;52.10;25.70;;;;;;;-0.36;68.74;99061.15;130374;1270;108841;-77
2022/01/09 09:04:58;;;;;;;50.70;24.80;;;;;;;-0.29;68.71;99062.08;130258;1271;108917;-77
2022/01/09 09:08:04;;;;;;;49.70;24.90;;;;;;;-0.25;68.28;99064.71;130628;1271;108607;-74
2022/01/09 09:11:11;;;;;;;47.80;25.00;;;;;;;-0.23;68.20;99064.38;130202;1270;108677;-77
2022/01/09 09:14:17;;;;;;;47.70;24.50;;;;;;;-0.21;68.21;99064.76;130235;1271;109781;-78
2022/01/09 09:17:23;;;;;;;46.20;23.20;;;;;;;-0.17;67.91;99066.06;130213;1270;108632;-77
2022/01/09 09:20:29;;;;;;;42.50;23.20;;;;;;;-0.14;68.14;99067.27;130263;1271;108816;-76
2022/01/09 09:23:35;;;;;;;45.30;23.00;;;;;;;-0.12;67.96;99063.58;130192;1269;108700;-78
2022/01/09 09:26:40;;;;;;;47.60;22.70;;;;;;;-0.11;67.95;99064.20;130201;1271;108754;-77
2022/01/09 09:29:46;;;;;;;53.30;26.00;;;;;;;-0.08;67.75;99064.36;130574;1268;108727;-75
2022/01/09 09:32:51;;;;;;;44.90;24.30;;;;;;;-0.06;67.69;99057.77;130347;1268;108777;-76
2022/01/09 09:35:58;;;;;;;41.60;22.40;;;;;;;-0.04;67.65;99051.47;130374;1268;108810;-77
2022/01/09 09:39:06;;;;;;;42.20;22.20;;;;;;;0.01;67.69;99050.59;130433;1268;108815;-75
2022/01/09 09:42:12;;;;;;;44.50;22.90;;;;;;;0.06;67.53;99051.46;130330;1268;106793;-77
2022/01/09 09:45:18;;;;;;;41.90;22.50;;;;;;;0.11;67.58;99054.52;130271;1268;108851;-76
2022/01/09 09:48:24;;;;;;;92.70;37.90;;;;;;;0.15;67.56;99052.14;130425;1268;108605;-77
2022/01/09 09:51:30;;;;;;;89.90;35.60;;;;;;;0.19;67.45;99058.30;130290;1268;108750;-76
2022/01/09 09:54:35;;;;;;;58.00;29.30;;;;;;;0.24;67.37;99055.48;130312;1268;110025;-75
2022/01/09 09:57:42;;;;;;;42.60;23.10;;;;;;;0.28;67.35;99049.92;130311;1268;108617;-77
2022/01/09 10:00:55;;;;;;;85.30;37.10;;;;;;;0.31;67.21;99046.17;130351;1268;108818;-78
2022/01/09 10:04:04;;;;;;;75.10;33.00;;;;;;;0.36;67.16;99048.45;130310;1268;107645;-78
2022/01/09 10:07:23;;;;;;;74.60;31.50;;;;;;;0.41;67.07;99048.91;130380;1268;106912;-77
2022/01/09 10:10:34;;;;;;;52.70;25.80;;;;;;;0.44;66.91;99048.89;130290;1268;107560;-76
2022/01/09 10:13:40;;;;;;;42.90;22.00;;;;;;;0.48;66.85;99047.34;130268;1269;107026;-77
2022/01/09 10:17:10;;;;;;;40.50;22.60;;;;;;;0.52;66.76;99044.21;129900;1271;108873;-75
2022/01/09 10:20:18;;;;;;;56.50;26.50;;;;;;;0.58;66.79;99040.79;130158;1271;108914;-77
2022/01/09 10:23:24;;;;;;;62.10;28.80;;;;;;;0.63;66.85;99043.58;130221;1271;109017;-76
2022/01/09 10:26:31;;;;;;;43.90;22.50;;;;;;;0.67;66.75;99040.98;130125;1270;108775;-76
2022/01/09 10:29:36;;;;;;;46.10;24.60;;;;;;;0.70;66.82;99040.54;130175;1271;108465;-76
2022/01/09 10:32:42;;;;;;;40.40;20.20;;;;;;;0.74;66.72;99030.40;130335;1270;108829;-75
2022/01/09 10:35:49;;;;;;;50.00;25.60;;;;;;;0.79;66.49;99032.52;130278;1271;108813;-75
2022/01/09 10:39:02;;;;;;;42.10;21.80;;;;;;;0.83;66.58;99027.86;130210;1271;108829;-76
2022/01/09 10:42:08;;;;;;;48.60;26.20;;;;;;;0.86;66.47;99024.23;130291;1271;108719;-75
2022/01/09 10:45:23;;;;;;;42.20;21.70;;;;;;;0.90;66.23;99026.36;130196;1271;108768;-76
2022/01/09 10:48:37;;;;;;;40.30;21.20;;;;;;;0.93;66.15;99014.90;129992;1271;109131;-78
2022/01/09 10:51:43;;;;;;;40.50;20.60;;;;;;;0.95;66.09;99011.11;130059;1271;109691;-76
2022/01/09 10:54:50;;;;;;;36.10;19.20;;;;;;;0.98;66.10;99009.95;130005;1271;109007;-77
2022/01/09 10:57:56;;;;;;;35.50;19.90;;;;;;;1.02;66.08;99005.31;130021;1271;109017;-76
2022/01/09 11:01:14;;;;;;;37.40;20.00;;;;;;;1.05;65.95;99002.41;130092;1271;107877;-75
2022/01/09 11:04:22;;;;;;;39.10;19.70;;;;;;;1.08;66.19;99004.13;130095;1270;108975;-76
2022/01/09 11:07:29;;;;;;;38.20;19.80;;;;;;;1.11;66.24;99001.77;130158;1271;108649;-77
2022/01/09 11:10:35;;;;;;;37.20;19.70;;;;;;;1.15;66.17;98999.82;130302;1271;107673;-78
2022/01/09 11:13:45;;;;;;;38.30;19.40;;;;;;;1.20;66.06;98998.59;130154;1271;108760;-76
2022/01/09 11:16:53;;;;;;;39.30;19.00;;;;;;;1.23;66.01;98998.52;130049;1271;108803;-76
2022/01/09 11:19:58;;;;;;;36.70;19.30;;;;;;;1.26;65.86;98992.86;130152;1271;107617;-76
2022/01/09 11:23:08;;;;;;;38.80;19.90;;;;;;;1.28;65.72;98992.50;130256;1271;108845;-74
2022/01/09 11:26:16;;;;;;;34.70;19.20;;;;;;;1.27;65.71;98992.74;130140;1271;108616;-77
2022/01/09 11:29:31;;;;;;;43.10;21.80;;;;;;;1.29;65.79;98991.37;130265;1271;107315;-76
2022/01/09 11:32:50;;;;;;;39.70;21.30;;;;;;;1.33;65.73;98988.25;130092;1271;108597;-78
2022/01/09 11:36:05;;;;;;;37.40;19.90;;;;;;;1.37;65.71;98987.54;130365;1271;107571;-74
2022/01/09 11:39:14;;;;;;;46.70;24.10;;;;;;;1.41;65.74;98987.27;130074;1271;108673;-77
2022/01/09 11:42:19;;;;;;;57.80;26.70;;;;;;;1.44;65.49;98985.98;130498;1268;108734;-78
2022/01/09 11:49:08;;;;;;;55.00;26.10;;;;;;;1.50;65.33;98977.10;126017;1310;636122;-79
2022/01/09 11:52:14;;;;;;;39.00;19.90;;;;;;;1.49;65.37;98975.71;129285;1280;108764;-79
2022/01/09 11:55:36;;;;;;;34.10;18.10;;;;;;;1.53;65.17;98978.55;129270;1280;109201;-77
2022/01/09 11:58:43;;;;;;;44.80;22.00;;;;;;;1.56;65.32;98972.69;129433;1279;108781;-79
2022/01/09 12:01:49;;;;;;;57.60;25.70;;;;;;;1.60;65.31;98972.05;129171;1280;245321;-77
2022/01/09 12:05:01;;;;;;;42.10;19.70;;;;;;;1.63;65.28;98971.98;129727;1280;108478;-77
2022/01/09 12:08:09;;;;;;;37.80;18.70;;;;;;;1.65;65.38;98975.86;129409;1279;108731;-79
2022/01/09 12:11:15;;;;;;;36.70;18.30;;;;;;;1.68;65.28;98975.38;129647;1280;108896;-80
2022/01/09 12:15:02;;;;;;;33.10;18.00;;;;;;;1.72;65.39;98978.95;129329;1279;109236;-77
2022/01/09 12:18:29;;;;;;;35.70;18.40;;;;;;;1.75;65.28;98982.68;129441;1280;107856;-78
2022/01/09 12:21:51;;;;;;;32.90;16.70;;;;;;;1.79;65.33;98990.08;129424;1277;109001;-78
2022/01/09 12:24:58;;;;;;;33.60;18.00;;;;;;;1.83;65.25;98988.65;129452;1278;107927;-77
2022/01/09 12:28:08;;;;;;;49.80;21.80;;;;;;;1.85;65.23;98989.52;129417;1278;108807;-78
2022/01/09 12:31:26;;;;;;;53.40;22.80;;;;;;;1.87;65.19;98986.77;129495;1280;109133;-77
2022/01/09 12:34:31;;;;;;;42.70;18.10;;;;;;;1.88;64.94;98981.96;129430;1278;108692;-76
2022/01/09 12:37:36;;;;;;;99.10;36.20;;;;;;;1.87;64.87;98981.82;129432;1278;108775;-78
2022/01/09 12:40:42;;;;;;;78.00;29.60;;;;;;;1.89;65.01;98981.88;129454;1278;107126;-75
2022/01/09 12:43:49;;;;;;;64.10;25.00;;;;;;;1.89;64.69;98983.05;129356;1277;108613;-78
2022/01/09 12:46:56;;;;;;;86.30;34.40;;;;;;;1.90;64.73;98982.84;129385;1278;108525;-76
2022/01/09 12:53:31;;;;;;;57.00;26.80;;;;;;;1.88;64.91;98984.06;129783;1275;108646;-74
2022/01/09 12:56:38;;;;;;;43.00;22.10;;;;;;;1.87;64.77;98995.73;129838;1275;108416;-75
2022/01/09 12:59:43;;;;;;;44.20;22.10;;;;;;;1.86;64.83;98999.70;129793;1274;108815;-73
2022/01/09 13:02:55;;;;;;;45.20;22.20;;;;;;;1.85;64.86;99000.61;129762;1275;108883;-77
2022/01/09 13:06:02;;;;;;;52.40;25.50;;;;;;;1.86;64.89;98998.47;129759;1277;108864;-80
2022/01/09 13:09:13;;;;;;;41.50;21.10;;;;;;;1.86;64.97;99003.02;129782;1275;108850;-77
2022/01/09 13:12:19;;;;;;;45.90;23.60;;;;;;;1.85;64.94;98996.56;130051;1271;108233;-77
2022/01/09 13:15:34;;;;;;;44.40;23.40;;;;;;;1.86;64.87;98997.54;130147;1271;107716;-80
2022/01/09 13:18:42;;;;;;;48.60;24.40;;;;;;;1.85;64.92;98997.09;129906;1271;108722;-76
2022/01/09 13:21:50;;;;;;;44.50;23.10;;;;;;;1.84;64.85;98991.23;130164;1271;108700;-77
2022/01/09 13:25:09;;;;;;;42.80;21.60;;;;;;;1.83;64.71;98989.77;130035;1274;108882;-77
2022/01/09 13:28:23;;;;;;;45.80;23.20;;;;;;;1.81;64.69;98993.05;130280;1271;109046;-79
2022/01/09 13:31:36;;;;;;;40.80;22.30;;;;;;;1.80;64.80;99001.41;130310;1271;108769;-82
2022/01/09 13:34:44;;;;;;;39.90;21.40;;;;;;;1.78;64.81;99003.30;130308;1271;108841;-80
2022/01/09 13:37:58;;;;;;;61.50;29.20;;;;;;;1.77;64.76;99001.31;130241;1271;108613;-82
2022/01/09 13:41:04;;;;;;;74.00;31.80;;;;;;;1.76;64.88;99004.34;130328;1270;108947;-83
2022/01/09 13:44:10;;;;;;;98.90;34.70;;;;;;;1.75;64.84;99002.89;130201;1271;108876;-79
2022/01/09 13:47:18;;;;;;;125.70;42.00;;;;;;;1.71;64.88;99007.18;130226;1271;107186;-79
2022/01/09 13:50:26;;;;;;;130.80;44.30;;;;;;;1.70;64.81;99011.67;130239;1271;108877;-80
2022/01/09 13:53:32;;;;;;;132.50;48.40;;;;;;;1.68;64.76;99017.14;130226;1270;108925;-78
2022/01/09 13:56:37;;;;;;;112.90;40.70;;;;;;;1.64;64.58;99016.23;130257;1271;108788;-78
2022/01/09 13:59:46;;;;;;;144.00;47.20;;;;;;;1.59;64.65;99018.04;130289;1271;108961;-82
2022/01/09 14:02:52;;;;;;;96.60;41.90;;;;;;;1.53;64.64;99022.20;130298;1271;107766;-77
2022/01/09 14:05:57;;;;;;;89.50;38.90;;;;;;;1.47;64.73;99028.13;130415;1271;108756;-76
2022/01/09 14:09:04;;;;;;;78.70;35.00;;;;;;;1.40;64.77;99025.73;130321;1270;107005;-75
2022/01/09 14:12:11;;;;;;;77.50;33.70;;;;;;;1.32;64.90;99028.79;130230;1271;109678;-78